sensor_id;sensor_type;location;lat;lon;timestamp;P1;durP1;ratioP1;P2;durP2;ratioP2
59193;SDS011;44967;48.598;15.650;2022-09-09T00:00:53;4.50;;;2.92;;
59193;SDS011;44967;48.598;15.650;2022-09-09T00:03:40;8.23;;;2.72;;
59193;SDS011;44967;48.598;15.650;2022-09-09T00:09:12;3.15;;;2.10;;
59193;SDS011;44967;48.598;15.650;2022-09-09T00:11:43;7.15;;;2.25;;
59193;SDS011;44967;48.598;15.650;2022-09-09T00:14:13;5.97;;;2.45;;
59193;SDS011;44967;48.598;15.650;2022-09-09T00:17:04;2.80;;;2.60;;
59193;SDS011;44967;48.598;15.650;2022-09-09T00:19:49;2.30;;;2.10;;
59193;SDS011;44967;48.598;15.650;2022-09-09T00:22:34;4.05;;;3.03;;
59193;SDS011;44967;48.598;15.650;2022-09-09T00:25:19;4.82;;;4.00;;
59193;SDS011;44967;48.598;15.650;2022-09-09T00:27:53;7.30;;;4.03;;
59193;SDS011;44967;48.598;15.650;2022-09-09T00:30:23;5.40;;;3.38;;
59193;SDS011;44967;48.598;15.650;2022-09-09T00:32:55;2.70;;;2.50;;
59193;SDS011;44967;48.598;15.650;2022-09-09T00:35:27;4.90;;;3.30;;
59193;SDS011;44967;48.598;15.650;2022-09-09T00:37:54;3.72;;;2.70;;
59193;SDS011;44967;48.598;15.650;2022-09-09T00:40:35;3.40;;;2.40;;
59193;SDS011;44967;48.598;15.650;2022-09-09T00:48:52;7.60;;;2.70;;
59193;SDS011;44967;48.598;15.650;2022-09-09T00:54:20;4.05;;;2.20;;
59193;SDS011;44967;48.598;15.650;2022-09-09T00:57:03;4.68;;;2.78;;
59193;SDS011;44967;48.598;15.650;2022-09-09T00:59:51;5.03;;;3.00;;
59193;SDS011;44967;48.598;15.650;2022-09-09T01:02:26;5.80;;;3.05;;
59193;SDS011;44967;48.598;15.650;2022-09-09T01:04:53;4.30;;;2.75;;
59193;SDS011;44967;48.598;15.650;2022-09-09T01:07:19;2.47;;;2.28;;
59193;SDS011;44967;48.598;15.650;2022-09-09T01:09:51;2.47;;;2.00;;
59193;SDS011;44967;48.598;15.650;2022-09-09T01:12:33;2.63;;;2.28;;
59193;SDS011;44967;48.598;15.650;2022-09-09T01:15:40;6.20;;;2.53;;
59193;SDS011;44967;48.598;15.650;2022-09-09T01:18:02;4.32;;;2.15;;
59193;SDS011;44967;48.598;15.650;2022-09-09T01:28:16;9.50;;;2.30;;
59193;SDS011;44967;48.598;15.650;2022-09-09T01:30:46;6.28;;;2.35;;
59193;SDS011;44967;48.598;15.650;2022-09-09T01:33:16;2.63;;;2.00;;
59193;SDS011;44967;48.598;15.650;2022-09-09T01:35:46;5.18;;;2.45;;
59193;SDS011;44967;48.598;15.650;2022-09-09T01:38:16;2.17;;;1.92;;
59193;SDS011;44967;48.598;15.650;2022-09-09T01:40:43;4.55;;;2.45;;
59193;SDS011;44967;48.598;15.650;2022-09-09T01:43:09;3.85;;;2.30;;
59193;SDS011;44967;48.598;15.650;2022-09-09T01:45:36;9.02;;;2.00;;
59193;SDS011;44967;48.598;15.650;2022-09-09T01:48:03;5.28;;;2.20;;
59193;SDS011;44967;48.598;15.650;2022-09-09T01:50:29;2.47;;;2.15;;
59193;SDS011;44967;48.598;15.650;2022-09-09T01:52:56;3.88;;;1.92;;
59193;SDS011;44967;48.598;15.650;2022-09-09T01:56:10;3.45;;;2.10;;
59193;SDS011;44967;48.598;15.650;2022-09-09T01:58:31;2.95;;;2.38;;
59193;SDS011;44967;48.598;15.650;2022-09-09T02:03:51;2.80;;;2.10;;
59193;SDS011;44967;48.598;15.650;2022-09-09T02:06:39;4.88;;;1.92;;
59193;SDS011;44967;48.598;15.650;2022-09-09T02:09:06;3.72;;;2.40;;
59193;SDS011;44967;48.598;15.650;2022-09-09T02:11:37;3.85;;;2.20;;
59193;SDS011;44967;48.598;15.650;2022-09-09T02:14:08;4.15;;;2.10;;
59193;SDS011;44967;48.598;15.650;2022-09-09T02:16:41;2.78;;;2.45;;
59193;SDS011;44967;48.598;15.650;2022-09-09T02:21:49;3.60;;;2.03;;
59193;SDS011;44967;48.598;15.650;2022-09-09T02:24:15;3.28;;;2.67;;
59193;SDS011;44967;48.598;15.650;2022-09-09T02:26:41;2.38;;;1.85;;
59193;SDS011;44967;48.598;15.650;2022-09-09T02:29:12;2.88;;;1.90;;
59193;SDS011;44967;48.598;15.650;2022-09-09T02:31:43;2.45;;;2.13;;
59193;SDS011;44967;48.598;15.650;2022-09-09T02:34:11;4.55;;;2.30;;
59193;SDS011;44967;48.598;15.650;2022-09-09T02:36:39;4.25;;;2.10;;
59193;SDS011;44967;48.598;15.650;2022-09-09T02:39:07;2.80;;;1.70;;
59193;SDS011;44967;48.598;15.650;2022-09-09T02:41:36;2.28;;;2.03;;
59193;SDS011;44967;48.598;15.650;2022-09-09T02:44:05;2.47;;;1.88;;
59193;SDS011;44967;48.598;15.650;2022-09-09T02:46:36;1.90;;;1.80;;
59193;SDS011;44967;48.598;15.650;2022-09-09T02:49:10;1.98;;;1.77;;
59193;SDS011;44967;48.598;15.650;2022-09-09T02:54:30;6.28;;;2.20;;
59193;SDS011;44967;48.598;15.650;2022-09-09T02:57:06;7.43;;;2.30;;
59193;SDS011;44967;48.598;15.650;2022-09-09T02:59:36;2.70;;;1.83;;
59193;SDS011;44967;48.598;15.650;2022-09-09T03:02:02;2.10;;;1.75;;
59193;SDS011;44967;48.598;15.650;2022-09-09T03:04:28;2.50;;;2.30;;
59193;SDS011;44967;48.598;15.650;2022-09-09T03:06:56;1.90;;;1.63;;
59193;SDS011;44967;48.598;15.650;2022-09-09T03:09:23;5.13;;;2.13;;
59193;SDS011;44967;48.598;15.650;2022-09-09T03:11:50;3.60;;;2.30;;
59193;SDS011;44967;48.598;15.650;2022-09-09T03:14:16;2.55;;;2.03;;
59193;SDS011;44967;48.598;15.650;2022-09-09T03:16:46;3.38;;;1.83;;
59193;SDS011;44967;48.598;15.650;2022-09-09T03:19:13;2.88;;;2.13;;
59193;SDS011;44967;48.598;15.650;2022-09-09T03:21:39;2.50;;;1.90;;
59193;SDS011;44967;48.598;15.650;2022-09-09T03:24:04;3.85;;;2.25;;
59193;SDS011;44967;48.598;15.650;2022-09-09T03:26:32;1.83;;;1.70;;
59193;SDS011;44967;48.598;15.650;2022-09-09T03:28:58;3.05;;;1.98;;
59193;SDS011;44967;48.598;15.650;2022-09-09T03:31:25;7.20;;;1.98;;
59193;SDS011;44967;48.598;15.650;2022-09-09T03:33:56;5.72;;;1.90;;
59193;SDS011;44967;48.598;15.650;2022-09-09T03:36:26;2.00;;;1.70;;
59193;SDS011;44967;48.598;15.650;2022-09-09T03:38:52;3.17;;;1.40;;
59193;SDS011;44967;48.598;15.650;2022-09-09T03:41:19;2.25;;;1.80;;
59193;SDS011;44967;48.598;15.650;2022-09-09T03:43:46;7.28;;;1.60;;
59193;SDS011;44967;48.598;15.650;2022-09-09T03:46:11;3.00;;;1.85;;
59193;SDS011;44967;48.598;15.650;2022-09-09T03:48:37;4.70;;;1.98;;
59193;SDS011;44967;48.598;15.650;2022-09-09T03:51:03;3.38;;;1.63;;
59193;SDS011;44967;48.598;15.650;2022-09-09T03:53:29;3.33;;;2.00;;
59193;SDS011;44967;48.598;15.650;2022-09-09T03:55:55;3.15;;;1.70;;
59193;SDS011;44967;48.598;15.650;2022-09-09T03:58:25;2.15;;;1.52;;
59193;SDS011;44967;48.598;15.650;2022-09-09T04:00:55;4.38;;;1.58;;
59193;SDS011;44967;48.598;15.650;2022-09-09T04:03:26;2.67;;;1.35;;
59193;SDS011;44967;48.598;15.650;2022-09-09T04:05:53;1.45;;;1.30;;
59193;SDS011;44967;48.598;15.650;2022-09-09T04:08:20;1.55;;;1.20;;
59193;SDS011;44967;48.598;15.650;2022-09-09T04:10:46;2.45;;;1.70;;
59193;SDS011;44967;48.598;15.650;2022-09-09T04:13:14;3.90;;;1.42;;
59193;SDS011;44967;48.598;15.650;2022-09-09T04:15:41;3.22;;;1.80;;
59193;SDS011;44967;48.598;15.650;2022-09-09T04:18:07;5.20;;;1.60;;
59193;SDS011;44967;48.598;15.650;2022-09-09T04:20:33;2.08;;;1.17;;
59193;SDS011;44967;48.598;15.650;2022-09-09T04:22:59;2.97;;;1.40;;
59193;SDS011;44967;48.598;15.650;2022-09-09T04:25:24;4.22;;;1.70;;
59193;SDS011;44967;48.598;15.650;2022-09-09T04:27:54;2.80;;;1.15;;
59193;SDS011;44967;48.598;15.650;2022-09-09T04:30:20;5.18;;;1.30;;
59193;SDS011;44967;48.598;15.650;2022-09-09T04:32:46;2.72;;;1.50;;
59193;SDS011;44967;48.598;15.650;2022-09-09T04:35:12;1.90;;;1.05;;
59193;SDS011;44967;48.598;15.650;2022-09-09T04:37:38;1.63;;;1.20;;
59193;SDS011;44967;48.598;15.650;2022-09-09T04:40:04;1.63;;;1.52;;
59193;SDS011;44967;48.598;15.650;2022-09-09T04:42:34;2.40;;;1.20;;
59193;SDS011;44967;48.598;15.650;2022-09-09T04:45:01;3.92;;;1.33;;
59193;SDS011;44967;48.598;15.650;2022-09-09T04:47:27;2.55;;;1.08;;
59193;SDS011;44967;48.598;15.650;2022-09-09T04:49:52;1.67;;;1.42;;
59193;SDS011;44967;48.598;15.650;2022-09-09T04:52:20;1.50;;;1.15;;
59193;SDS011;44967;48.598;15.650;2022-09-09T04:54:46;4.10;;;1.30;;
59193;SDS011;44967;48.598;15.650;2022-09-09T04:57:13;1.20;;;1.10;;
59193;SDS011;44967;48.598;15.650;2022-09-09T04:59:38;1.80;;;1.10;;
59193;SDS011;44967;48.598;15.650;2022-09-09T05:02:04;2.60;;;1.67;;
59193;SDS011;44967;48.598;15.650;2022-09-09T05:04:31;2.28;;;1.50;;
59193;SDS011;44967;48.598;15.650;2022-09-09T05:06:58;3.47;;;1.55;;
59193;SDS011;44967;48.598;15.650;2022-09-09T05:09:24;4.65;;;1.85;;
59193;SDS011;44967;48.598;15.650;2022-09-09T05:11:50;2.00;;;1.38;;
59193;SDS011;44967;48.598;15.650;2022-09-09T05:14:16;7.45;;;2.63;;
59193;SDS011;44967;48.598;15.650;2022-09-09T05:16:44;3.72;;;1.30;;
59193;SDS011;44967;48.598;15.650;2022-09-09T05:19:10;3.53;;;1.30;;
59193;SDS011;44967;48.598;15.650;2022-09-09T05:21:37;1.23;;;0.85;;
59193;SDS011;44967;48.598;15.650;2022-09-09T05:24:03;1.92;;;1.17;;
59193;SDS011;44967;48.598;15.650;2022-09-09T05:26:29;2.55;;;1.70;;
59193;SDS011;44967;48.598;15.650;2022-09-09T05:28:54;2.47;;;1.52;;
59193;SDS011;44967;48.598;15.650;2022-09-09T05:31:20;2.92;;;1.70;;
59193;SDS011;44967;48.598;15.650;2022-09-09T05:33:47;1.85;;;1.70;;
59193;SDS011;44967;48.598;15.650;2022-09-09T05:36:16;1.92;;;1.80;;
59193;SDS011;44967;48.598;15.650;2022-09-09T05:38:44;4.97;;;1.80;;
59193;SDS011;44967;48.598;15.650;2022-09-09T05:41:10;2.83;;;1.75;;
59193;SDS011;44967;48.598;15.650;2022-09-09T05:43:37;3.40;;;1.67;;
59193;SDS011;44967;48.598;15.650;2022-09-09T05:46:07;2.25;;;1.05;;
59193;SDS011;44967;48.598;15.650;2022-09-09T05:48:36;2.22;;;1.33;;
59193;SDS011;44967;48.598;15.650;2022-09-09T05:51:04;1.48;;;1.15;;
59193;SDS011;44967;48.598;15.650;2022-09-09T05:53:37;3.23;;;1.50;;
59193;SDS011;44967;48.598;15.650;2022-09-09T05:56:06;1.63;;;1.05;;
59193;SDS011;44967;48.598;15.650;2022-09-09T05:58:40;1.38;;;1.30;;
59193;SDS011;44967;48.598;15.650;2022-09-09T06:01:19;2.95;;;1.90;;
59193;SDS011;44967;48.598;15.650;2022-09-09T06:03:49;1.98;;;1.70;;
59193;SDS011;44967;48.598;15.650;2022-09-09T06:06:24;1.88;;;1.38;;
59193;SDS011;44967;48.598;15.650;2022-09-09T06:08:53;1.40;;;1.30;;
59193;SDS011;44967;48.598;15.650;2022-09-09T06:11:25;2.15;;;1.60;;
59193;SDS011;44967;48.598;15.650;2022-09-09T06:13:59;2.40;;;1.92;;
59193;SDS011;44967;48.598;15.650;2022-09-09T06:16:26;2.22;;;1.85;;
59193;SDS011;44967;48.598;15.650;2022-09-09T06:18:53;1.60;;;1.50;;
59193;SDS011;44967;48.598;15.650;2022-09-09T06:21:25;3.55;;;1.80;;
59193;SDS011;44967;48.598;15.650;2022-09-09T06:23:55;2.45;;;1.80;;
59193;SDS011;44967;48.598;15.650;2022-09-09T06:26:22;1.60;;;1.50;;
59193;SDS011;44967;48.598;15.650;2022-09-09T06:28:51;1.88;;;1.67;;
59193;SDS011;44967;48.598;15.650;2022-09-09T06:31:19;2.55;;;1.77;;
59193;SDS011;44967;48.598;15.650;2022-09-09T06:33:47;2.15;;;1.73;;
59193;SDS011;44967;48.598;15.650;2022-09-09T06:36:15;2.25;;;2.05;;
59193;SDS011;44967;48.598;15.650;2022-09-09T06:38:45;1.60;;;1.50;;
59193;SDS011;44967;48.598;15.650;2022-09-09T06:41:11;4.18;;;1.75;;
59193;SDS011;44967;48.598;15.650;2022-09-09T06:43:38;3.95;;;1.73;;
59193;SDS011;44967;48.598;15.650;2022-09-09T06:46:06;2.45;;;1.92;;
59193;SDS011;44967;48.598;15.650;2022-09-09T06:48:35;4.20;;;2.05;;
59193;SDS011;44967;48.598;15.650;2022-09-09T06:51:06;2.72;;;2.53;;
59193;SDS011;44967;48.598;15.650;2022-09-09T06:53:35;2.25;;;1.95;;
59193;SDS011;44967;48.598;15.650;2022-09-09T06:56:23;2.20;;;2.00;;
59193;SDS011;44967;48.598;15.650;2022-09-09T06:58:50;3.75;;;2.30;;
59193;SDS011;44967;48.598;15.650;2022-09-09T07:01:18;2.75;;;2.20;;
59193;SDS011;44967;48.598;15.650;2022-09-09T07:03:46;3.20;;;2.03;;
59193;SDS011;44967;48.598;15.650;2022-09-09T07:06:14;3.13;;;2.20;;
59193;SDS011;44967;48.598;15.650;2022-09-09T07:08:42;3.05;;;2.20;;
59193;SDS011;44967;48.598;15.650;2022-09-09T07:11:08;3.72;;;2.22;;
59193;SDS011;44967;48.598;15.650;2022-09-09T07:13:34;2.08;;;1.90;;
59193;SDS011;44967;48.598;15.650;2022-09-09T07:16:07;2.13;;;1.90;;
59193;SDS011;44967;48.598;15.650;2022-09-09T07:18:35;2.63;;;1.70;;
59193;SDS011;44967;48.598;15.650;2022-09-09T07:21:01;2.25;;;1.60;;
59193;SDS011;44967;48.598;15.650;2022-09-09T07:23:28;2.28;;;1.88;;
59193;SDS011;44967;48.598;15.650;2022-09-09T07:25:55;1.60;;;1.50;;
59193;SDS011;44967;48.598;15.650;2022-09-09T07:28:21;3.17;;;1.70;;
59193;SDS011;44967;48.598;15.650;2022-09-09T07:30:58;3.38;;;1.95;;
59193;SDS011;44967;48.598;15.650;2022-09-09T07:33:26;2.85;;;1.70;;
59193;SDS011;44967;48.598;15.650;2022-09-09T07:35:52;2.03;;;1.85;;
59193;SDS011;44967;48.598;15.650;2022-09-09T07:38:19;1.55;;;1.45;;
59193;SDS011;44967;48.598;15.650;2022-09-09T07:40:45;2.35;;;1.80;;
59193;SDS011;44967;48.598;15.650;2022-09-09T07:43:11;2.70;;;1.30;;
59193;SDS011;44967;48.598;15.650;2022-09-09T07:45:37;2.10;;;1.30;;
59193;SDS011;44967;48.598;15.650;2022-09-09T07:48:03;1.73;;;1.10;;
59193;SDS011;44967;48.598;15.650;2022-09-09T07:50:29;1.45;;;1.20;;
59193;SDS011;44967;48.598;15.650;2022-09-09T07:52:56;0.90;;;0.90;;
59193;SDS011;44967;48.598;15.650;2022-09-09T07:55:21;1.40;;;1.30;;
59193;SDS011;44967;48.598;15.650;2022-09-09T07:57:52;1.13;;;1.00;;
59193;SDS011;44967;48.598;15.650;2022-09-09T08:00:18;3.17;;;1.25;;
59193;SDS011;44967;48.598;15.650;2022-09-09T08:02:47;2.58;;;1.23;;
59193;SDS011;44967;48.598;15.650;2022-09-09T08:05:12;3.28;;;1.52;;
59193;SDS011;44967;48.598;15.650;2022-09-09T08:07:38;1.05;;;0.98;;
59193;SDS011;44967;48.598;15.650;2022-09-09T08:10:04;1.60;;;1.30;;
59193;SDS011;44967;48.598;15.650;2022-09-09T08:12:31;1.70;;;1.60;;
59193;SDS011;44967;48.598;15.650;2022-09-09T08:14:57;2.95;;;1.52;;
59193;SDS011;44967;48.598;15.650;2022-09-09T08:17:23;1.50;;;1.40;;
59193;SDS011;44967;48.598;15.650;2022-09-09T08:19:49;1.85;;;1.70;;
59193;SDS011;44967;48.598;15.650;2022-09-09T08:22:15;3.13;;;1.50;;
59193;SDS011;44967;48.598;15.650;2022-09-09T08:24:41;3.00;;;1.52;;
59193;SDS011;44967;48.598;15.650;2022-09-09T08:27:06;3.92;;;1.60;;
59193;SDS011;44967;48.598;15.650;2022-09-09T08:29:32;2.40;;;2.20;;
59193;SDS011;44967;48.598;15.650;2022-09-09T08:31:58;3.38;;;1.70;;
59193;SDS011;44967;48.598;15.650;2022-09-09T08:34:26;2.75;;;1.70;;
59193;SDS011;44967;48.598;15.650;2022-09-09T08:36:53;3.28;;;1.40;;
59193;SDS011;44967;48.598;15.650;2022-09-09T08:39:20;2.10;;;1.52;;
59193;SDS011;44967;48.598;15.650;2022-09-09T08:49:39;1.67;;;1.30;;
59193;SDS011;44967;48.598;15.650;2022-09-09T08:57:49;2.72;;;1.10;;
59193;SDS011;44967;48.598;15.650;2022-09-09T09:00:18;1.20;;;1.10;;
59193;SDS011;44967;48.598;15.650;2022-09-09T09:08:08;1.27;;;1.02;;
59193;SDS011;44967;48.598;15.650;2022-09-09T09:10:50;3.20;;;1.10;;
59193;SDS011;44967;48.598;15.650;2022-09-09T09:13:20;1.58;;;1.10;;
59193;SDS011;44967;48.598;15.650;2022-09-09T09:15:53;1.48;;;1.00;;
59193;SDS011;44967;48.598;15.650;2022-09-09T09:18:25;1.55;;;1.25;;
59193;SDS011;44967;48.598;15.650;2022-09-09T09:20:54;5.25;;;1.40;;
59193;SDS011;44967;48.598;15.650;2022-09-09T09:23:42;0.88;;;0.88;;
59193;SDS011;44967;48.598;15.650;2022-09-09T09:26:16;1.50;;;0.75;;
59193;SDS011;44967;48.598;15.650;2022-09-09T09:28:44;1.00;;;0.70;;
59193;SDS011;44967;48.598;15.650;2022-09-09T09:31:11;0.70;;;0.70;;
59193;SDS011;44967;48.598;15.650;2022-09-09T09:33:48;1.00;;;0.80;;
59193;SDS011;44967;48.598;15.650;2022-09-09T09:36:19;0.88;;;0.80;;
59193;SDS011;44967;48.598;15.650;2022-09-09T09:38:55;0.90;;;0.90;;
59193;SDS011;44967;48.598;15.650;2022-09-09T09:41:31;3.22;;;0.90;;
59193;SDS011;44967;48.598;15.650;2022-09-09T09:44:05;1.30;;;1.00;;
59193;SDS011;44967;48.598;15.650;2022-09-09T09:46:48;0.80;;;0.80;;
59193;SDS011;44967;48.598;15.650;2022-09-09T09:49:13;0.57;;;0.57;;
59193;SDS011;44967;48.598;15.650;2022-09-09T09:51:39;1.65;;;0.93;;
59193;SDS011;44967;48.598;15.650;2022-09-09T09:56:43;2.00;;;0.70;;
59193;SDS011;44967;48.598;15.650;2022-09-09T09:59:24;1.48;;;0.80;;
59193;SDS011;44967;48.598;15.650;2022-09-09T10:02:06;1.60;;;0.80;;
59193;SDS011;44967;48.598;15.650;2022-09-09T10:04:38;0.60;;;0.60;;
59193;SDS011;44967;48.598;15.650;2022-09-09T10:07:20;0.82;;;0.60;;
59193;SDS011;44967;48.598;15.650;2022-09-09T10:09:49;2.05;;;0.90;;
59193;SDS011;44967;48.598;15.650;2022-09-09T10:12:35;1.25;;;0.70;;
59193;SDS011;44967;48.598;15.650;2022-09-09T10:26:37;1.23;;;0.95;;
59193;SDS011;44967;48.598;15.650;2022-09-09T10:34:39;1.17;;;0.95;;
59193;SDS011;44967;48.598;15.650;2022-09-09T10:37:31;2.27;;;1.40;;
59193;SDS011;44967;48.598;15.650;2022-09-09T10:48:25;4.30;;;0.98;;
59193;SDS011;44967;48.598;15.650;2022-09-09T10:51:17;0.60;;;0.60;;
59193;SDS011;44967;48.598;15.650;2022-09-09T10:56:41;0.80;;;0.50;;
59193;SDS011;44967;48.598;15.650;2022-09-09T10:59:16;0.88;;;0.60;;
59193;SDS011;44967;48.598;15.650;2022-09-09T11:01:49;2.75;;;0.80;;
59193;SDS011;44967;48.598;15.650;2022-09-09T11:04:38;1.90;;;0.70;;
59193;SDS011;44967;48.598;15.650;2022-09-09T11:07:11;2.58;;;0.90;;
59193;SDS011;44967;48.598;15.650;2022-09-09T11:09:44;0.57;;;0.50;;
59193;SDS011;44967;48.598;15.650;2022-09-09T11:12:20;0.50;;;0.50;;
59193;SDS011;44967;48.598;15.650;2022-09-09T11:14:59;1.75;;;0.80;;
59193;SDS011;44967;48.598;15.650;2022-09-09T11:17:41;1.05;;;0.80;;
59193;SDS011;44967;48.598;15.650;2022-09-09T11:20:12;3.88;;;0.73;;
59193;SDS011;44967;48.598;15.650;2022-09-09T11:22:43;0.52;;;0.50;;
59193;SDS011;44967;48.598;15.650;2022-09-09T11:25:15;1.08;;;0.85;;
59193;SDS011;44967;48.598;15.650;2022-09-09T11:30:38;0.82;;;0.60;;
59193;SDS011;44967;48.598;15.650;2022-09-09T11:42:04;1.85;;;0.55;;
59193;SDS011;44967;48.598;15.650;2022-09-09T11:44:32;0.60;;;0.40;;
59193;SDS011;44967;48.598;15.650;2022-09-09T11:46:57;0.68;;;0.60;;
59193;SDS011;44967;48.598;15.650;2022-09-09T11:49:39;0.57;;;0.57;;
59193;SDS011;44967;48.598;15.650;2022-09-09T11:52:18;1.58;;;0.50;;
59193;SDS011;44967;48.598;15.650;2022-09-09T11:57:27;0.60;;;0.60;;
59193;SDS011;44967;48.598;15.650;2022-09-09T12:00:00;0.55;;;0.52;;
59193;SDS011;44967;48.598;15.650;2022-09-09T12:02:26;0.70;;;0.60;;
59193;SDS011;44967;48.598;15.650;2022-09-09T12:12:55;0.90;;;0.77;;
59193;SDS011;44967;48.598;15.650;2022-09-09T12:15:22;0.93;;;0.63;;
59193;SDS011;44967;48.598;15.650;2022-09-09T12:17:53;1.13;;;0.47;;
59193;SDS011;44967;48.598;15.650;2022-09-09T12:20:22;0.50;;;0.50;;
59193;SDS011;44967;48.598;15.650;2022-09-09T12:26:03;1.02;;;0.60;;
59193;SDS011;44967;48.598;15.650;2022-09-09T12:28:40;1.13;;;0.50;;
59193;SDS011;44967;48.598;15.650;2022-09-09T12:31:40;1.27;;;0.57;;
59193;SDS011;44967;48.598;15.650;2022-09-09T12:34:16;0.40;;;0.40;;
59193;SDS011;44967;48.598;15.650;2022-09-09T12:36:52;1.85;;;0.70;;
59193;SDS011;44967;48.598;15.650;2022-09-09T12:41:52;2.65;;;0.80;;
59193;SDS011;44967;48.598;15.650;2022-09-09T12:44:25;1.63;;;0.80;;
59193;SDS011;44967;48.598;15.650;2022-09-09T12:46:55;1.25;;;0.50;;
59193;SDS011;44967;48.598;15.650;2022-09-09T12:49:35;2.25;;;0.80;;
59193;SDS011;44967;48.598;15.650;2022-09-09T12:52:04;1.55;;;0.70;;
59193;SDS011;44967;48.598;15.650;2022-09-09T12:54:38;1.45;;;0.70;;
59193;SDS011;44967;48.598;15.650;2022-09-09T12:57:12;1.25;;;0.60;;
59193;SDS011;44967;48.598;15.650;2022-09-09T12:59:40;1.33;;;0.60;;
59193;SDS011;44967;48.598;15.650;2022-09-09T13:04:53;0.90;;;0.63;;
59193;SDS011;44967;48.598;15.650;2022-09-09T13:07:20;0.38;;;0.38;;
59193;SDS011;44967;48.598;15.650;2022-09-09T13:09:47;0.70;;;0.57;;
59193;SDS011;44967;48.598;15.650;2022-09-09T13:12:15;0.60;;;0.50;;
59193;SDS011;44967;48.598;15.650;2022-09-09T13:14:44;0.70;;;0.50;;
59193;SDS011;44967;48.598;15.650;2022-09-09T13:17:23;0.60;;;0.50;;
59193;SDS011;44967;48.598;15.650;2022-09-09T13:19:51;1.77;;;0.80;;
59193;SDS011;44967;48.598;15.650;2022-09-09T13:22:23;1.10;;;0.73;;
59193;SDS011;44967;48.598;15.650;2022-09-09T13:25:03;0.57;;;0.55;;
59193;SDS011;44967;48.598;15.650;2022-09-09T13:27:30;1.92;;;0.60;;
59193;SDS011;44967;48.598;15.650;2022-09-09T13:32:59;0.82;;;0.50;;
59193;SDS011;44967;48.598;15.650;2022-09-09T13:35:55;0.93;;;0.70;;
59193;SDS011;44967;48.598;15.650;2022-09-09T13:38:24;0.75;;;0.60;;
59193;SDS011;44967;48.598;15.650;2022-09-09T13:41:06;0.90;;;0.60;;
59193;SDS011;44967;48.598;15.650;2022-09-09T13:43:37;2.13;;;0.50;;
59193;SDS011;44967;48.598;15.650;2022-09-09T13:51:37;0.90;;;0.45;;
59193;SDS011;44967;48.598;15.650;2022-09-09T13:54:10;1.08;;;0.50;;
59193;SDS011;44967;48.598;15.650;2022-09-09T13:56:37;3.72;;;1.65;;
59193;SDS011;44967;48.598;15.650;2022-09-09T13:59:05;0.50;;;0.50;;
59193;SDS011;44967;48.598;15.650;2022-09-09T14:01:34;0.55;;;0.50;;
59193;SDS011;44967;48.598;15.650;2022-09-09T14:04:00;1.90;;;0.90;;
59193;SDS011;44967;48.598;15.650;2022-09-09T14:06:26;1.48;;;1.13;;
59193;SDS011;44967;48.598;15.650;2022-09-09T14:08:52;0.98;;;0.80;;
59193;SDS011;44967;48.598;15.650;2022-09-09T14:11:20;4.55;;;1.05;;
59193;SDS011;44967;48.598;15.650;2022-09-09T14:13:47;2.85;;;0.68;;
59193;SDS011;44967;48.598;15.650;2022-09-09T14:16:15;1.60;;;0.95;;
59193;SDS011;44967;48.598;15.650;2022-09-09T14:18:42;4.00;;;0.93;;
59193;SDS011;44967;48.598;15.650;2022-09-09T14:21:09;1.65;;;0.93;;
59193;SDS011;44967;48.598;15.650;2022-09-09T14:23:36;2.85;;;1.80;;
59193;SDS011;44967;48.598;15.650;2022-09-09T14:26:03;2.42;;;1.00;;
59193;SDS011;44967;48.598;15.650;2022-09-09T14:28:30;4.28;;;1.17;;
59193;SDS011;44967;48.598;15.650;2022-09-09T14:30:58;3.20;;;1.13;;
59193;SDS011;44967;48.598;15.650;2022-09-09T14:33:25;3.75;;;1.25;;
59193;SDS011;44967;48.598;15.650;2022-09-09T14:35:55;1.45;;;0.90;;
59193;SDS011;44967;48.598;15.650;2022-09-09T14:38:23;5.10;;;1.15;;
59193;SDS011;44967;48.598;15.650;2022-09-09T14:40:49;2.58;;;1.15;;
59193;SDS011;44967;48.598;15.650;2022-09-09T14:43:15;1.73;;;1.10;;
59193;SDS011;44967;48.598;15.650;2022-09-09T14:45:41;3.45;;;0.73;;
59193;SDS011;44967;48.598;15.650;2022-09-09T14:48:06;2.85;;;1.00;;
59193;SDS011;44967;48.598;15.650;2022-09-09T14:50:32;1.20;;;0.90;;
59193;SDS011;44967;48.598;15.650;2022-09-09T14:53:00;1.08;;;0.95;;
59193;SDS011;44967;48.598;15.650;2022-09-09T14:55:25;1.15;;;0.90;;
59193;SDS011;44967;48.598;15.650;2022-09-09T14:57:53;2.42;;;1.10;;
59193;SDS011;44967;48.598;15.650;2022-09-09T15:00:19;2.13;;;0.90;;
59193;SDS011;44967;48.598;15.650;2022-09-09T15:02:45;3.85;;;1.20;;
59193;SDS011;44967;48.598;15.650;2022-09-09T15:05:10;3.08;;;0.73;;
59193;SDS011;44967;48.598;15.650;2022-09-09T15:07:36;2.08;;;1.08;;
59193;SDS011;44967;48.598;15.650;2022-09-09T15:10:03;2.63;;;1.05;;
59193;SDS011;44967;48.598;15.650;2022-09-09T15:12:29;1.23;;;1.10;;
59193;SDS011;44967;48.598;15.650;2022-09-09T15:14:56;1.85;;;1.10;;
59193;SDS011;44967;48.598;15.650;2022-09-09T15:17:21;1.92;;;1.13;;
59193;SDS011;44967;48.598;15.650;2022-09-09T15:19:47;2.05;;;0.93;;
59193;SDS011;44967;48.598;15.650;2022-09-09T15:22:15;2.75;;;1.40;;
59193;SDS011;44967;48.598;15.650;2022-09-09T15:24:40;1.75;;;1.33;;
59193;SDS011;44967;48.598;15.650;2022-09-09T15:27:06;1.88;;;1.10;;
59193;SDS011;44967;48.598;15.650;2022-09-09T15:29:32;1.67;;;1.05;;
59193;SDS011;44967;48.598;15.650;2022-09-09T15:31:58;3.40;;;1.00;;
59193;SDS011;44967;48.598;15.650;2022-09-09T15:34:23;1.95;;;0.85;;
59193;SDS011;44967;48.598;15.650;2022-09-09T15:36:50;1.08;;;0.90;;
59193;SDS011;44967;48.598;15.650;2022-09-09T15:39:16;1.67;;;1.27;;
59193;SDS011;44967;48.598;15.650;2022-09-09T15:41:44;1.70;;;1.33;;
59193;SDS011;44967;48.598;15.650;2022-09-09T15:44:11;3.45;;;1.73;;
59193;SDS011;44967;48.598;15.650;2022-09-09T15:46:38;1.90;;;1.10;;
59193;SDS011;44967;48.598;15.650;2022-09-09T15:49:14;2.55;;;1.17;;
59193;SDS011;44967;48.598;15.650;2022-09-09T15:51:51;1.42;;;1.23;;
59193;SDS011;44967;48.598;15.650;2022-09-09T15:54:19;2.10;;;1.23;;
59193;SDS011;44967;48.598;15.650;2022-09-09T15:56:50;2.35;;;1.00;;
59193;SDS011;44967;48.598;15.650;2022-09-09T15:59:17;2.70;;;1.30;;
59193;SDS011;44967;48.598;15.650;2022-09-09T16:01:43;2.22;;;1.27;;
59193;SDS011;44967;48.598;15.650;2022-09-09T16:04:09;1.00;;;1.00;;
59193;SDS011;44967;48.598;15.650;2022-09-09T16:06:35;2.45;;;1.27;;
59193;SDS011;44967;48.598;15.650;2022-09-09T16:09:02;1.88;;;0.90;;
59193;SDS011;44967;48.598;15.650;2022-09-09T16:11:30;1.58;;;1.20;;
59193;SDS011;44967;48.598;15.650;2022-09-09T16:13:58;2.33;;;1.17;;
59193;SDS011;44967;48.598;15.650;2022-09-09T16:16:26;2.75;;;1.05;;
59193;SDS011;44967;48.598;15.650;2022-09-09T16:18:56;1.60;;;1.50;;
59193;SDS011;44967;48.598;15.650;2022-09-09T16:21:24;4.20;;;1.50;;
59193;SDS011;44967;48.598;15.650;2022-09-09T16:23:54;2.78;;;1.15;;
59193;SDS011;44967;48.598;15.650;2022-09-09T16:26:20;1.50;;;1.40;;
59193;SDS011;44967;48.598;15.650;2022-09-09T16:28:47;3.53;;;1.30;;
59193;SDS011;44967;48.598;15.650;2022-09-09T16:31:17;2.72;;;1.20;;
59193;SDS011;44967;48.598;15.650;2022-09-09T16:33:45;3.60;;;1.55;;
59193;SDS011;44967;48.598;15.650;2022-09-09T16:36:12;7.68;;;1.83;;
59193;SDS011;44967;48.598;15.650;2022-09-09T16:38:40;1.88;;;1.10;;
59193;SDS011;44967;48.598;15.650;2022-09-09T16:41:06;3.55;;;1.17;;
59193;SDS011;44967;48.598;15.650;2022-09-09T16:43:33;2.72;;;1.38;;
59193;SDS011;44967;48.598;15.650;2022-09-09T16:46:01;1.17;;;1.08;;